createdAt,value
2018-12-01T00:00:23.885Z,65.97
2018-12-01T00:03:03.082Z,54.30
2018-12-01T00:05:39.162Z,41.97
2018-12-01T00:08:19.011Z,47.30
2018-12-01T00:10:55.163Z,64.93
2018-12-01T00:13:31.425Z,61.77
2018-12-01T00:16:13.395Z,53.37
2018-12-01T00:18:49.721Z,53.47
2018-12-01T00:21:25.947Z,69.70
2018-12-01T00:24:02.223Z,61.43
2018-12-01T00:26:38.412Z,56.30
2018-12-01T00:29:14.615Z,66.13
2018-12-01T00:31:50.958Z,40.67
2018-12-01T00:34:27.053Z,63.93
2018-12-01T00:37:03.178Z,56.17
2018-12-01T00:39:44.784Z,70.33
2018-12-01T00:42:20.884Z,67.40
2018-12-01T00:44:57.124Z,47.00
2018-12-01T00:47:33.078Z,66.30
2018-12-01T00:50:12.043Z,64.40
2018-12-01T00:52:58.301Z,43.93
2018-12-01T00:55:34.688Z,79.07
2018-12-01T00:58:10.850Z,59.03
2018-12-01T01:00:47.416Z,68.87
2018-12-01T01:03:33.360Z,80.67
2018-12-01T01:06:09.472Z,55.73
2018-12-01T01:08:45.778Z,47.43
2018-12-01T01:11:22.078Z,44.57
2018-12-01T01:13:58.272Z,64.90
2018-12-01T01:16:34.342Z,51.00
2018-12-01T01:19:11.433Z,104.43
2018-12-01T01:21:47.884Z,58.33
2018-12-01T01:24:24.167Z,54.50
2018-12-01T01:27:00.420Z,83.87
2018-12-01T01:29:36.593Z,50.83
2018-12-01T01:32:12.778Z,59.67
2018-12-01T01:34:48.896Z,57.83
2018-12-01T01:37:25.097Z,47.00
2018-12-01T01:40:11.355Z,56.50
2018-12-01T01:42:47.539Z,55.80
2018-12-01T01:45:23.578Z,53.87
2018-12-01T01:47:59.685Z,68.10
2018-12-01T01:50:35.717Z,56.93
2018-12-01T01:53:13.852Z,70.97
2018-12-01T01:55:50.759Z,53.77
2018-12-01T01:58:26.935Z,42.77
2018-12-01T02:01:03.011Z,54.97
2018-12-01T02:03:39.203Z,43.97
2018-12-01T02:06:15.448Z,51.10
2018-12-01T02:09:01.106Z,46.83
2018-12-01T02:11:37.322Z,48.67
2018-12-01T02:14:19.578Z,77.67
2018-12-01T02:16:55.809Z,66.67
2018-12-01T02:19:35.489Z,67.03
2018-12-01T02:22:11.667Z,59.93
2018-12-01T02:24:47.867Z,103.70
2018-12-01T02:27:26.017Z,76.93
2018-12-01T02:30:02.111Z,113.97
2018-12-01T02:32:39.465Z,55.90
2018-12-01T02:35:21.227Z,70.03
2018-12-01T02:37:57.431Z,87.13
2018-12-01T02:40:33.502Z,64.80
2018-12-01T02:43:09.538Z,43.33
2018-12-01T02:46:12.206Z,41.90
2018-12-01T02:48:48.315Z,31.30
2018-12-01T02:51:24.452Z,52.63
2018-12-01T02:54:01.430Z,54.83
2018-12-01T02:56:37.635Z,49.30
2018-12-01T02:59:13.661Z,47.27
2018-12-01T03:01:49.741Z,33.83
2018-12-01T03:04:25.712Z,36.43
2018-12-01T03:07:02.040Z,41.40
2018-12-01T03:09:38.340Z,45.20
2018-12-01T03:12:14.574Z,38.93
2018-12-01T03:14:50.771Z,50.80
2018-12-01T03:17:26.901Z,48.53
2018-12-01T03:20:03.004Z,50.17
2018-12-01T03:22:39.122Z,28.73
2018-12-01T03:25:23.910Z,45.57
2018-12-01T03:27:59.949Z,48.70
2018-12-01T03:30:36.022Z,28.57
2018-12-01T03:33:12.206Z,36.43
2018-12-01T03:35:49.288Z,52.33
2018-12-01T03:38:26.395Z,34.87
2018-12-01T03:41:02.414Z,44.87
2018-12-01T03:43:38.485Z,23.70
2018-12-01T03:46:15.984Z,32.37
2018-12-01T03:48:52.228Z,26.93
2018-12-01T03:51:33.951Z,29.80
2018-12-01T03:54:10.289Z,38.40
2018-12-01T03:56:46.465Z,32.43
2018-12-01T03:59:22.523Z,25.60
2018-12-01T04:01:58.680Z,38.53
2018-12-01T04:04:34.746Z,45.50
2018-12-01T04:07:10.893Z,36.10
2018-12-01T04:09:46.998Z,37.63
2018-12-01T04:12:23.726Z,29.90
2018-12-01T04:14:59.887Z,33.13
2018-12-01T04:17:37.161Z,28.30
2018-12-01T04:20:13.347Z,42.90
2018-12-01T04:22:49.588Z,31.10
2018-12-01T04:25:25.973Z,38.90
2018-12-01T04:28:02.115Z,30.73
2018-12-01T04:30:38.362Z,32.17
2018-12-01T04:33:14.452Z,24.40
2018-12-01T04:35:50.580Z,24.10
2018-12-01T04:38:26.795Z,27.70
2018-12-01T04:41:02.990Z,50.97
2018-12-01T04:43:32.958Z,26.43
2018-12-01T04:46:08.602Z,49.83
2018-12-01T04:48:38.572Z,32.63
2018-12-01T04:51:08.520Z,27.47
2018-12-01T04:53:38.514Z,28.30
2018-12-01T04:56:08.499Z,32.90
2018-12-01T04:58:38.399Z,26.13
2018-12-01T05:01:08.451Z,27.37
2018-12-01T05:03:38.436Z,20.87
2018-12-01T05:06:08.419Z,18.43
2018-12-01T05:08:38.263Z,44.17
2018-12-01T05:11:08.251Z,26.03
2018-12-01T05:13:38.209Z,25.73
2018-12-01T05:16:09.017Z,51.50
2018-12-01T05:18:38.902Z,37.17
2018-12-01T05:21:08.811Z,31.50
2018-12-01T05:23:40.809Z,32.40
2018-12-01T05:26:10.753Z,41.43
2018-12-01T05:28:40.702Z,45.23
2018-12-01T05:31:11.179Z,28.93
2018-12-01T05:33:41.043Z,39.13
2018-12-01T05:36:10.931Z,29.70
2018-12-01T05:38:40.843Z,31.30
2018-12-01T05:41:10.844Z,26.83
2018-12-01T05:43:40.789Z,25.67
2018-12-01T05:46:10.832Z,44.17
2018-12-01T05:48:40.838Z,21.17
2018-12-01T05:51:10.865Z,42.07
2018-12-01T05:53:40.859Z,32.07
2018-12-01T05:56:10.898Z,34.33
2018-12-01T05:58:51.821Z,45.77
2018-12-01T06:01:21.891Z,30.13
2018-12-01T06:03:51.811Z,26.77
2018-12-01T06:06:21.834Z,50.40
2018-12-01T06:08:51.744Z,32.73
2018-12-01T06:11:21.661Z,32.17
2018-12-01T06:13:51.655Z,33.67
2018-12-01T06:16:21.588Z,30.30
2018-12-01T06:18:51.705Z,26.73
2018-12-01T06:21:21.682Z,35.23
2018-12-01T06:23:51.700Z,36.13
2018-12-01T06:26:22.574Z,32.27
2018-12-01T06:28:52.523Z,33.93
2018-12-01T06:31:32.686Z,25.77
2018-12-01T06:34:02.658Z,37.80
2018-12-01T06:36:32.612Z,28.40
2018-12-01T06:39:02.504Z,31.63
2018-12-01T06:41:32.408Z,31.27
2018-12-01T06:44:08.351Z,35.23
2018-12-01T06:46:38.452Z,34.30
2018-12-01T06:49:08.378Z,35.00
2018-12-01T06:51:38.738Z,40.77
2018-12-01T06:54:08.702Z,41.70
2018-12-01T06:56:38.632Z,36.93
2018-12-01T06:59:08.681Z,34.00
2018-12-01T07:01:38.671Z,35.13
2018-12-01T07:04:08.683Z,31.27
2018-12-01T07:06:38.806Z,37.53
2018-12-01T07:09:10.571Z,32.43
2018-12-01T07:11:40.669Z,31.47
2018-12-01T07:14:10.596Z,33.30
2018-12-01T07:16:40.526Z,49.10
2018-12-01T07:19:17.807Z,28.13
2018-12-01T07:24:24.325Z,23.33
2018-12-01T07:26:54.266Z,28.27
2018-12-01T07:29:24.203Z,30.37
2018-12-01T07:31:54.090Z,32.83
2018-12-01T07:34:24.011Z,34.20
2018-12-01T07:36:53.929Z,30.77
2018-12-01T07:39:23.929Z,23.40
2018-12-01T07:41:53.826Z,34.83
2018-12-01T07:44:23.785Z,27.43
2018-12-01T07:46:53.802Z,33.60
2018-12-01T07:49:24.133Z,28.77
2018-12-01T07:51:54.488Z,39.10
2018-12-01T07:54:24.796Z,35.10
2018-12-01T07:56:54.712Z,33.20
2018-12-01T07:59:24.636Z,33.80
2018-12-01T08:01:54.856Z,35.43
2018-12-01T08:04:24.779Z,29.57
2018-12-01T08:06:54.698Z,41.30
2018-12-01T08:09:25.815Z,33.93
2018-12-01T08:11:55.695Z,28.27
2018-12-01T08:14:25.692Z,31.93
2018-12-01T08:16:55.602Z,29.90
2018-12-01T08:19:25.503Z,39.67
2018-12-01T08:21:55.366Z,30.90
2018-12-01T08:24:25.234Z,34.60
2018-12-01T08:26:55.110Z,30.10
2018-12-01T08:29:25.389Z,34.97
2018-12-01T08:31:55.370Z,44.40
2018-12-01T08:34:25.272Z,27.13
2018-12-01T08:36:55.141Z,34.23
2018-12-01T08:39:25.042Z,32.00
2018-12-01T08:41:54.952Z,38.57
2018-12-01T08:44:24.793Z,27.50
2018-12-01T08:46:54.873Z,31.67
2018-12-01T08:49:24.860Z,33.37
2018-12-01T08:51:54.808Z,30.30
2018-12-01T08:54:24.667Z,33.23
2018-12-01T08:56:54.591Z,32.07
2018-12-01T08:59:24.442Z,31.50
2018-12-01T09:01:54.402Z,36.07
2018-12-01T09:04:24.302Z,36.10
2018-12-01T09:06:54.168Z,32.23
2018-12-01T09:09:24.023Z,35.07
2018-12-01T09:11:53.902Z,38.30
2018-12-01T09:14:23.750Z,29.60
2018-12-01T09:16:53.879Z,26.57
2018-12-01T09:19:23.955Z,31.67
2018-12-01T09:21:54.038Z,34.57
2018-12-01T09:24:23.972Z,30.90
2018-12-01T09:26:53.876Z,30.53
2018-12-01T09:29:23.768Z,32.87
2018-12-01T09:31:53.858Z,34.63
2018-12-01T09:34:23.818Z,29.60
2018-12-01T09:36:53.702Z,31.67
2018-12-01T09:39:23.601Z,32.00
2018-12-01T09:41:53.692Z,28.53
2018-12-01T09:44:23.675Z,31.73
2018-12-01T09:46:53.698Z,34.57
2018-12-01T09:49:23.582Z,35.50
2018-12-01T09:51:53.449Z,23.40
2018-12-01T09:54:23.306Z,28.57
2018-12-01T09:56:53.202Z,33.00
2018-12-01T09:59:23.091Z,30.33
2018-12-01T10:01:53.449Z,27.17
2018-12-01T10:04:23.297Z,33.67
2018-12-01T10:06:53.239Z,25.07
2018-12-01T10:09:23.354Z,30.70
2018-12-01T10:11:53.215Z,28.87
2018-12-01T10:14:23.089Z,29.60
2018-12-01T10:16:52.985Z,23.60
2018-12-01T10:19:22.917Z,28.33
2018-12-01T10:21:52.754Z,27.37
2018-12-01T10:24:22.676Z,29.73
2018-12-01T10:26:52.612Z,27.63
2018-12-01T10:29:22.497Z,22.53
2018-12-01T10:31:52.381Z,25.50
2018-12-01T10:34:22.303Z,27.17
2018-12-01T10:36:52.232Z,27.53
2018-12-01T10:39:22.145Z,23.67
2018-12-01T10:41:52.084Z,27.43
2018-12-01T10:44:21.962Z,26.90
2018-12-01T10:46:51.977Z,27.70
2018-12-01T10:49:21.837Z,31.30
2018-12-01T10:51:51.713Z,24.60
2018-12-01T10:54:21.564Z,27.43
2018-12-01T10:56:51.461Z,26.93
2018-12-01T10:59:21.445Z,26.33
2018-12-01T11:01:56.694Z,29.00
2018-12-01T11:04:31.801Z,27.60
2018-12-01T11:07:01.769Z,22.20
2018-12-01T11:09:31.623Z,24.50
2018-12-01T11:12:01.640Z,26.27
2018-12-01T11:14:31.525Z,22.33
2018-12-01T11:17:01.609Z,22.47
2018-12-01T11:19:31.509Z,24.47
2018-12-01T11:22:01.812Z,20.23
2018-12-01T11:24:32.386Z,19.97
2018-12-01T11:27:02.417Z,21.90
2018-12-01T11:29:32.343Z,20.70
2018-12-01T11:32:02.307Z,27.13
2018-12-01T11:34:32.272Z,24.83
2018-12-01T11:37:02.216Z,18.90
2018-12-01T11:39:32.146Z,26.70
2018-12-01T11:42:02.084Z,32.17
2018-12-01T11:44:32.018Z,27.57
2018-12-01T11:47:02.002Z,26.03
2018-12-01T11:49:31.920Z,20.53
2018-12-01T11:52:01.802Z,18.47
2018-12-01T11:54:31.699Z,24.10
2018-12-01T11:57:01.591Z,14.53
2018-12-01T11:59:31.526Z,16.77
2018-12-01T12:02:01.360Z,19.90
2018-12-01T12:04:31.246Z,20.67
2018-12-01T12:07:01.138Z,22.80
2018-12-01T12:09:31.040Z,20.27
2018-12-01T12:12:00.892Z,20.03
2018-12-01T12:14:30.746Z,17.97
2018-12-01T12:17:00.629Z,17.77
2018-12-01T12:19:30.466Z,18.63
2018-12-01T12:22:00.317Z,15.50
2018-12-01T12:24:30.239Z,14.50
2018-12-01T12:27:00.184Z,13.07
2018-12-01T12:29:31.036Z,14.50
2018-12-01T12:32:00.945Z,10.97
2018-12-01T12:34:30.794Z,12.97
2018-12-01T12:37:00.692Z,9.23
2018-12-01T12:39:30.624Z,10.23
2018-12-01T12:42:00.533Z,13.83
2018-12-01T12:44:30.393Z,10.87
2018-12-01T12:47:00.240Z,10.40
2018-12-01T12:49:30.119Z,13.60
2018-12-01T12:52:00.157Z,18.90
2018-12-01T12:54:31.268Z,12.97
2018-12-01T12:57:01.145Z,14.70
2018-12-01T12:59:31.071Z,12.57
2018-12-01T13:02:00.968Z,10.20
2018-12-01T13:04:30.820Z,10.50
2018-12-01T13:07:00.784Z,14.93
2018-12-01T13:09:30.690Z,14.93
2018-12-01T13:12:00.563Z,10.17
2018-12-01T13:14:30.436Z,13.30
2018-12-01T13:17:00.376Z,15.40
2018-12-01T13:19:30.245Z,10.57
2018-12-01T13:22:00.126Z,7.10
2018-12-01T13:24:30.022Z,15.60
2018-12-01T13:26:59.941Z,15.13
2018-12-01T13:29:29.826Z,16.43
2018-12-01T13:31:59.708Z,13.23
2018-12-01T13:34:29.641Z,8.10
2018-12-01T13:36:59.522Z,11.20
2018-12-01T13:39:29.412Z,9.90
2018-12-01T13:41:59.288Z,8.10
2018-12-01T13:44:29.161Z,9.83
2018-12-01T13:46:59.042Z,8.47
2018-12-01T13:49:28.906Z,5.83
2018-12-01T13:51:58.775Z,12.63
2018-12-01T13:54:28.695Z,6.53
2018-12-01T13:56:59.959Z,9.13
2018-12-01T13:59:29.843Z,7.63
2018-12-01T14:01:59.714Z,10.90
2018-12-01T14:04:29.595Z,10.70
2018-12-01T14:06:59.469Z,7.30
2018-12-01T14:09:29.314Z,6.90
2018-12-01T14:11:59.179Z,9.37
2018-12-01T14:14:29.025Z,5.57
2018-12-01T14:16:58.894Z,5.00
2018-12-01T14:19:28.753Z,7.80
2018-12-01T14:21:58.582Z,6.50
2018-12-01T14:24:28.434Z,6.50
2018-12-01T14:26:58.284Z,9.43
2018-12-01T14:29:28.254Z,7.20
2018-12-01T14:31:58.125Z,6.77
2018-12-01T14:34:27.965Z,8.60
2018-12-01T14:36:57.956Z,6.87
2018-12-01T14:39:27.818Z,14.00
2018-12-01T14:41:57.680Z,9.10
2018-12-01T14:44:27.542Z,10.00
2018-12-01T14:46:57.474Z,7.20
2018-12-01T14:49:27.376Z,7.00
2018-12-01T14:51:57.259Z,6.93
2018-12-01T14:54:27.126Z,5.67
2018-12-01T14:56:56.932Z,6.63
2018-12-01T14:59:26.766Z,4.87
2018-12-01T15:01:56.690Z,9.60
2018-12-01T15:04:26.554Z,5.43
2018-12-01T15:06:56.378Z,5.47
2018-12-01T15:09:26.225Z,5.10
2018-12-01T15:11:56.085Z,7.47
2018-12-01T15:14:25.947Z,7.33
2018-12-01T15:16:55.809Z,4.83
2018-12-01T15:19:25.697Z,3.63
2018-12-01T15:21:55.603Z,5.47
2018-12-01T15:24:25.454Z,5.07
2018-12-01T15:26:55.329Z,7.97
2018-12-01T15:29:25.226Z,6.60
2018-12-01T15:31:55.058Z,5.53
2018-12-01T15:34:24.889Z,7.70
2018-12-01T15:36:54.727Z,5.73
2018-12-01T15:39:28.501Z,7.67
2018-12-01T15:41:58.361Z,11.30
2018-12-01T15:44:28.252Z,5.23
2018-12-01T15:46:58.117Z,6.43
2018-12-01T15:49:27.990Z,9.43
2018-12-01T15:51:57.845Z,6.40
2018-12-01T15:54:27.724Z,4.70
2018-12-01T15:56:57.593Z,5.30
2018-12-01T15:59:27.445Z,6.20
2018-12-01T16:01:57.310Z,8.60
2018-12-01T16:04:27.232Z,8.60
2018-12-01T16:06:57.060Z,5.90
2018-12-01T16:09:26.944Z,5.47
2018-12-01T16:11:56.797Z,5.30
2018-12-01T16:14:26.673Z,6.73
2018-12-01T16:16:56.525Z,9.40
2018-12-01T16:19:26.409Z,6.80
2018-12-01T16:21:56.271Z,7.80
2018-12-01T16:24:26.169Z,4.20
2018-12-01T16:26:56.009Z,4.13
2018-12-01T16:29:25.872Z,14.33
2018-12-01T16:31:55.773Z,9.97
2018-12-01T16:34:25.646Z,6.97
2018-12-01T16:36:55.586Z,6.77
2018-12-01T16:39:25.497Z,4.43
2018-12-01T16:41:55.381Z,6.37
2018-12-01T16:44:25.238Z,4.80
2018-12-01T16:46:55.150Z,5.43
2018-12-01T16:49:25.069Z,9.73
2018-12-01T16:51:54.954Z,7.80
2018-12-01T16:54:24.838Z,6.53
2018-12-01T16:56:54.729Z,7.67
2018-12-01T16:59:24.596Z,6.73
2018-12-01T17:01:54.572Z,9.30
2018-12-01T17:04:24.441Z,9.57
2018-12-01T17:06:54.459Z,5.73
2018-12-01T17:09:24.325Z,6.50
2018-12-01T17:11:54.210Z,8.20
2018-12-01T17:14:24.185Z,13.33
2018-12-01T17:16:54.068Z,6.17
2018-12-01T17:19:23.965Z,6.13
2018-12-01T17:21:53.846Z,8.87
2018-12-01T17:24:23.785Z,5.67
2018-12-01T17:26:53.649Z,8.03
2018-12-01T17:29:23.576Z,6.30
2018-12-01T17:31:53.477Z,10.60
2018-12-01T17:34:23.373Z,7.47
2018-12-01T17:36:53.405Z,8.63
2018-12-01T17:39:23.367Z,10.10
2018-12-01T17:41:53.350Z,6.10
2018-12-01T17:44:23.194Z,8.73
2018-12-01T17:46:53.077Z,6.00
2018-12-01T17:49:22.947Z,5.70
2018-12-01T17:51:52.926Z,5.80
2018-12-01T17:54:22.776Z,5.30
2018-12-01T17:56:52.655Z,6.30
2018-12-01T17:59:22.513Z,5.60
2018-12-01T18:01:52.485Z,10.67
2018-12-01T18:04:22.400Z,6.60
2018-12-01T18:06:52.295Z,8.30
2018-12-01T18:09:22.225Z,13.53
2018-12-01T18:11:52.120Z,9.17
2018-12-01T18:14:22.000Z,7.20
2018-12-01T18:16:51.943Z,10.63
2018-12-01T18:19:21.842Z,7.17
2018-12-01T18:21:51.720Z,8.47
2018-12-01T18:24:21.584Z,10.63
2018-12-01T18:26:51.493Z,6.77
2018-12-01T18:29:23.424Z,7.50
2018-12-01T18:31:53.291Z,6.90
2018-12-01T18:34:23.187Z,13.87
2018-12-01T18:36:53.055Z,8.97
2018-12-01T18:39:22.917Z,5.17
2018-12-01T18:41:52.785Z,7.00
2018-12-01T18:44:22.674Z,6.60
2018-12-01T18:46:52.548Z,5.90
2018-12-01T18:49:22.413Z,7.80
2018-12-01T18:51:52.405Z,7.17
2018-12-01T18:54:22.255Z,9.40
2018-12-01T18:56:52.127Z,9.30
2018-12-01T18:59:22.000Z,7.00
2018-12-01T19:01:52.988Z,5.73
2018-12-01T19:04:22.857Z,7.57
2018-12-01T19:06:52.737Z,4.23
2018-12-01T19:09:22.630Z,5.73
2018-12-01T19:11:52.503Z,4.30
2018-12-01T19:14:22.381Z,7.30
2018-12-01T19:16:52.308Z,4.07
2018-12-01T19:19:22.310Z,4.17
2018-12-01T19:21:52.126Z,4.60
2018-12-01T19:24:22.008Z,9.13
2018-12-01T19:26:51.965Z,5.73
2018-12-01T19:29:21.824Z,7.40
2018-12-01T19:31:51.686Z,5.17
2018-12-01T19:34:21.545Z,7.57
2018-12-01T19:36:51.446Z,5.23
2018-12-01T19:39:21.349Z,5.90
2018-12-01T19:41:51.233Z,9.40
2018-12-01T19:44:21.134Z,7.07
2018-12-01T19:46:51.046Z,7.80
2018-12-01T19:49:20.926Z,4.87
2018-12-01T19:51:50.777Z,8.57
2018-12-01T19:54:21.086Z,6.60
2018-12-01T19:56:51.114Z,11.63
2018-12-01T19:59:21.030Z,14.10
2018-12-01T20:01:51.004Z,7.83
2018-12-01T20:04:21.008Z,6.80
2018-12-01T20:06:50.929Z,3.37
2018-12-01T20:09:20.862Z,6.43
2018-12-01T20:11:50.932Z,9.77
2018-12-01T20:14:20.885Z,5.03
2018-12-01T20:16:54.571Z,4.67
2018-12-01T20:19:24.671Z,5.47
2018-12-01T20:21:54.742Z,8.13
2018-12-01T20:24:24.670Z,6.83
2018-12-01T20:26:55.282Z,9.10
2018-12-01T20:29:25.368Z,4.47
2018-12-01T20:31:55.497Z,4.80
2018-12-01T20:34:25.443Z,7.63
2018-12-01T20:36:59.846Z,4.30
2018-12-01T20:39:36.105Z,4.43
2018-12-01T20:42:06.466Z,4.57
2018-12-01T20:44:36.604Z,6.37
2018-12-01T20:47:06.992Z,8.60
2018-12-01T20:49:37.031Z,7.90
2018-12-01T20:52:07.362Z,6.23
2018-12-01T20:54:43.391Z,6.70
2018-12-01T20:57:29.981Z,6.50
2018-12-01T21:00:00.987Z,7.20
2018-12-01T21:02:31.054Z,5.73
2018-12-01T21:05:01.069Z,3.13
2018-12-01T21:07:31.109Z,5.03
2018-12-01T21:10:00.981Z,6.57
2018-12-01T21:12:30.871Z,6.53
2018-12-01T21:15:00.753Z,6.57
2018-12-01T21:17:30.642Z,9.37
2018-12-01T21:20:00.517Z,4.10
2018-12-01T21:22:30.433Z,3.83
2018-12-01T21:25:00.424Z,8.47
2018-12-01T21:27:30.388Z,2.40
2018-12-01T21:30:00.413Z,4.00
2018-12-01T21:32:30.272Z,6.03
2018-12-01T21:35:00.215Z,3.87
2018-12-01T21:37:30.132Z,2.57
2018-12-01T21:40:00.040Z,6.07
2018-12-01T21:42:30.125Z,2.60
2018-12-01T21:45:00.102Z,5.20
2018-12-01T21:47:30.080Z,6.93
2018-12-01T21:50:00.067Z,3.97
2018-12-01T21:52:30.100Z,3.67
2018-12-01T21:54:59.971Z,5.90
2018-12-01T21:57:30.042Z,5.63
2018-12-01T22:00:00.090Z,4.73
2018-12-01T22:02:30.101Z,2.50
2018-12-01T22:05:00.041Z,4.60
2018-12-01T22:07:30.193Z,2.97
2018-12-01T22:10:00.268Z,5.10
2018-12-01T22:12:30.196Z,6.93
2018-12-01T22:15:00.164Z,2.13
2018-12-01T22:17:30.186Z,4.17
2018-12-01T22:20:00.113Z,5.33
2018-12-01T22:22:30.007Z,7.80
2018-12-01T22:24:59.990Z,3.40
2018-12-01T22:27:29.853Z,8.07
2018-12-01T22:30:00.075Z,3.77
2018-12-01T22:32:29.949Z,6.30
2018-12-01T22:34:59.843Z,7.03
2018-12-01T22:37:29.705Z,7.20
2018-12-01T22:39:59.597Z,4.43
2018-12-01T22:42:29.599Z,4.10
2018-12-01T22:44:59.544Z,5.17
2018-12-01T22:47:29.430Z,3.00
2018-12-01T22:50:04.177Z,3.40
2018-12-01T22:52:34.423Z,4.07
2018-12-01T22:55:04.687Z,4.00
2018-12-01T22:57:34.675Z,2.60
2018-12-01T23:00:07.577Z,4.73
2018-12-01T23:02:37.456Z,3.40
2018-12-01T23:05:07.932Z,5.07
2018-12-01T23:07:37.926Z,3.90
2018-12-01T23:10:13.088Z,4.17
2018-12-01T23:12:43.881Z,4.43
2018-12-01T23:15:17.115Z,6.83
2018-12-01T23:17:48.526Z,2.93
2018-12-01T23:20:21.550Z,3.37
2018-12-01T23:22:52.221Z,3.40
2018-12-01T23:25:22.019Z,5.57
2018-12-01T23:27:52.417Z,3.73
2018-12-01T23:30:25.917Z,7.27
2018-12-01T23:32:58.583Z,7.90
2018-12-01T23:35:29.500Z,5.03
2018-12-01T23:37:59.744Z,5.97
2018-12-01T23:40:29.627Z,3.87
2018-12-01T23:42:59.458Z,3.30
2018-12-01T23:45:29.302Z,3.50
2018-12-01T23:47:59.723Z,4.50
2018-12-01T23:50:29.604Z,2.40
2018-12-01T23:53:03.784Z,2.23
2018-12-01T23:55:33.630Z,2.90
2018-12-01T23:58:03.610Z,3.57
